createdAt,value
2023-01-29T00:02:12.041Z,10.47
2023-01-29T00:04:39.308Z,10.77
2023-01-29T00:07:06.472Z,8.93
2023-01-29T00:09:33.742Z,8.70
2023-01-29T00:12:00.335Z,10.93
2023-01-29T00:14:28.252Z,10.83
2023-01-29T00:16:55.147Z,9.93
2023-01-29T00:19:22.296Z,8.90
2023-01-29T00:21:49.345Z,9.67
2023-01-29T00:24:16.465Z,9.37
2023-01-29T00:26:43.605Z,9.43
2023-01-29T00:29:10.559Z,8.87
2023-01-29T00:31:37.345Z,8.87
2023-01-29T00:34:04.482Z,7.87
2023-01-29T00:36:31.627Z,8.70
2023-01-29T00:38:59.826Z,8.47
2023-01-29T00:41:46.320Z,7.70
2023-01-29T00:44:32.083Z,6.97
2023-01-29T00:46:59.424Z,6.97
2023-01-29T00:49:26.705Z,8.00
2023-01-29T00:52:12.397Z,8.30
2023-01-29T00:54:39.450Z,6.97
2023-01-29T00:57:06.534Z,8.17
2023-01-29T00:59:33.601Z,7.83
2023-01-29T01:02:19.032Z,7.17
2023-01-29T01:04:45.773Z,7.77
2023-01-29T01:09:57.139Z,7.93
2023-01-29T01:12:24.159Z,8.43
2023-01-29T01:14:51.230Z,7.53
2023-01-29T01:17:18.237Z,7.37
2023-01-29T01:19:45.540Z,7.27
2023-01-29T01:22:12.754Z,7.70
2023-01-29T01:24:40.020Z,6.87
2023-01-29T01:27:07.102Z,8.33
2023-01-29T01:29:34.355Z,6.97
2023-01-29T01:32:01.752Z,7.70
2023-01-29T01:34:29.368Z,7.70
2023-01-29T01:36:58.957Z,8.80
2023-01-29T01:39:25.934Z,7.90
2023-01-29T01:41:56.510Z,8.57
2023-01-29T01:44:42.385Z,7.40
2023-01-29T01:47:09.604Z,7.87
2023-01-29T01:49:36.816Z,7.63
2023-01-29T01:52:03.913Z,8.57
2023-01-29T01:54:32.392Z,7.70
2023-01-29T01:57:09.684Z,9.40
2023-01-29T01:59:38.220Z,8.37
2023-01-29T02:02:24.702Z,8.43
2023-01-29T02:05:10.541Z,8.87
2023-01-29T02:08:00.495Z,7.50
2023-01-29T02:10:28.398Z,8.00
2023-01-29T02:12:55.507Z,8.53
2023-01-29T02:15:22.639Z,8.40
2023-01-29T02:17:49.695Z,7.93
2023-01-29T02:20:35.594Z,6.57
2023-01-29T02:23:05.504Z,6.77
2023-01-29T02:25:48.139Z,6.97
2023-01-29T02:28:39.382Z,8.03
2023-01-29T02:31:18.907Z,7.47
2023-01-29T02:33:56.357Z,6.70
2023-01-29T02:36:23.326Z,7.30
2023-01-29T02:39:07.587Z,7.00
2023-01-29T02:41:40.623Z,6.80
2023-01-29T02:44:07.842Z,7.53
2023-01-29T02:46:58.595Z,6.73
2023-01-29T02:49:32.126Z,7.57
2023-01-29T02:52:15.562Z,7.05
2023-01-29T02:54:53.605Z,7.13
2023-01-29T02:57:21.131Z,6.70
2023-01-29T02:59:52.169Z,6.87
2023-01-29T03:02:26.741Z,5.87
2023-01-29T03:04:57.545Z,6.13
2023-01-29T03:07:46.675Z,7.27
2023-01-29T03:10:36.844Z,5.10
2023-01-29T03:13:07.585Z,5.50
2023-01-29T03:15:42.753Z,5.30
2023-01-29T03:18:12.327Z,4.87
2023-01-29T03:20:48.799Z,4.80
2023-01-29T03:23:24.169Z,4.87
2023-01-29T03:26:12.034Z,4.50
2023-01-29T03:28:59.150Z,4.37
2023-01-29T03:31:45.103Z,5.43
2023-01-29T03:34:24.889Z,4.80
2023-01-29T03:36:56.460Z,4.20
2023-01-29T03:39:24.798Z,4.13
2023-01-29T03:41:58.579Z,4.40
2023-01-29T03:44:44.294Z,4.03
2023-01-29T03:47:19.619Z,3.30
2023-01-29T03:50:09.633Z,3.77
2023-01-29T03:52:44.330Z,3.57
2023-01-29T03:55:16.059Z,3.43
2023-01-29T03:57:49.103Z,3.40
2023-01-29T04:00:19.080Z,3.67
2023-01-29T04:03:04.558Z,3.60
2023-01-29T04:05:35.070Z,3.47
2023-01-29T04:08:07.618Z,3.97
2023-01-29T04:10:36.527Z,2.90
2023-01-29T04:13:06.023Z,2.20
2023-01-29T04:15:35.131Z,2.70
2023-01-29T04:18:02.296Z,2.67
2023-01-29T04:20:29.658Z,2.93
2023-01-29T04:22:56.841Z,2.27
2023-01-29T04:25:27.028Z,2.57
2023-01-29T04:28:12.103Z,3.37
2023-01-29T04:30:42.154Z,2.73
2023-01-29T04:33:12.246Z,2.67
2023-01-29T04:35:54.751Z,2.70
2023-01-29T04:38:21.772Z,2.93
2023-01-29T04:40:56.449Z,2.57
2023-01-29T04:43:29.269Z,2.37
2023-01-29T04:45:56.511Z,2.42
2023-01-29T04:48:27.397Z,2.20
2023-01-29T04:51:08.557Z,1.67
2023-01-29T04:53:35.385Z,2.37
2023-01-29T04:56:22.554Z,2.10
2023-01-29T04:58:56.740Z,2.33
2023-01-29T05:01:26.248Z,2.17
2023-01-29T05:03:54.382Z,2.30
2023-01-29T05:06:21.899Z,2.13
2023-01-29T05:08:50.303Z,2.43
2023-01-29T05:11:17.851Z,2.97
2023-01-29T05:13:44.875Z,2.40
2023-01-29T05:16:30.446Z,2.87
2023-01-29T05:18:57.575Z,3.10
2023-01-29T05:21:25.134Z,2.67
2023-01-29T05:24:09.147Z,2.67
2023-01-29T05:29:21.689Z,3.60
2023-01-29T05:31:49.237Z,3.33
2023-01-29T05:34:16.541Z,3.27
2023-01-29T05:36:43.739Z,2.87
2023-01-29T05:39:10.876Z,3.47
2023-01-29T05:41:38.163Z,4.00
2023-01-29T05:44:05.395Z,2.90
2023-01-29T05:46:32.788Z,2.50
2023-01-29T05:49:00.095Z,3.47
2023-01-29T05:51:27.026Z,2.47
2023-01-29T05:53:54.324Z,2.67
2023-01-29T05:56:21.347Z,3.80
2023-01-29T05:58:47.823Z,3.00
2023-01-29T06:01:15.685Z,2.90
2023-01-29T06:03:42.671Z,2.97
2023-01-29T06:06:10.206Z,2.90
2023-01-29T06:08:37.709Z,3.03
2023-01-29T06:11:05.254Z,3.13
2023-01-29T06:13:32.609Z,2.90
2023-01-29T06:15:59.613Z,3.40
2023-01-29T06:18:26.913Z,2.73
2023-01-29T06:20:53.853Z,2.97
2023-01-29T06:23:20.894Z,2.93
2023-01-29T06:25:47.954Z,3.60
2023-01-29T06:28:15.091Z,3.57
2023-01-29T06:30:42.273Z,3.90
2023-01-29T06:33:09.473Z,3.63
2023-01-29T06:35:36.317Z,3.63
2023-01-29T06:38:03.555Z,3.60
2023-01-29T06:40:30.587Z,4.50
2023-01-29T06:42:57.718Z,3.90
2023-01-29T06:45:24.954Z,4.67
2023-01-29T06:47:52.115Z,4.93
2023-01-29T06:50:19.458Z,6.10
2023-01-29T06:52:46.577Z,6.33
2023-01-29T06:55:13.609Z,6.20
2023-01-29T06:57:40.611Z,6.33
2023-01-29T07:00:07.842Z,6.03
2023-01-29T07:02:34.890Z,6.67
2023-01-29T07:05:01.276Z,5.90
2023-01-29T07:07:28.250Z,5.30
2023-01-29T07:09:55.183Z,5.67
2023-01-29T07:12:22.049Z,5.13
2023-01-29T07:14:49.129Z,5.00
2023-01-29T07:17:16.398Z,5.03
2023-01-29T07:19:43.492Z,5.53
2023-01-29T07:22:11.067Z,4.90
2023-01-29T07:24:38.047Z,5.07
2023-01-29T07:27:04.940Z,5.70
2023-01-29T07:29:31.990Z,5.27
2023-01-29T07:31:59.171Z,5.67
2023-01-29T07:34:26.306Z,6.30
2023-01-29T07:36:54.543Z,6.67
2023-01-29T07:39:21.348Z,6.37
2023-01-29T07:41:48.248Z,7.30
2023-01-29T07:44:15.366Z,6.87
2023-01-29T07:46:42.513Z,7.77
2023-01-29T07:49:09.487Z,7.13
2023-01-29T07:51:36.391Z,8.20
2023-01-29T07:54:03.484Z,7.17
2023-01-29T07:56:30.672Z,8.77
2023-01-29T07:58:57.771Z,6.83
2023-01-29T08:01:25.086Z,6.80
2023-01-29T08:03:52.036Z,21.00
2023-01-29T08:06:19.789Z,7.67
2023-01-29T08:08:46.643Z,6.10
2023-01-29T08:11:13.913Z,6.23
2023-01-29T08:13:40.968Z,5.93
2023-01-29T08:16:08.409Z,5.20
2023-01-29T08:18:38.544Z,7.23
2023-01-29T08:21:05.485Z,6.10
2023-01-29T08:23:32.493Z,6.37
2023-01-29T08:25:59.703Z,6.10
2023-01-29T08:28:26.766Z,6.53
2023-01-29T08:30:53.871Z,6.97
2023-01-29T08:33:29.822Z,6.07
2023-01-29T08:36:04.231Z,6.20
2023-01-29T08:38:31.160Z,6.40
2023-01-29T08:40:57.947Z,6.87
2023-01-29T08:43:25.236Z,7.57
2023-01-29T08:45:52.475Z,8.00
2023-01-29T08:48:19.428Z,7.83
2023-01-29T08:50:46.448Z,7.07
2023-01-29T08:53:12.958Z,7.73
2023-01-29T08:55:40.800Z,6.77
2023-01-29T08:58:08.122Z,7.13
2023-01-29T09:00:35.287Z,5.90
2023-01-29T09:03:02.413Z,6.20
2023-01-29T09:05:29.487Z,5.87
2023-01-29T09:07:59.570Z,6.40
2023-01-29T09:10:26.494Z,6.33
2023-01-29T09:12:53.513Z,7.20
2023-01-29T09:15:20.371Z,6.73
2023-01-29T09:17:47.449Z,7.30
2023-01-29T09:20:14.416Z,7.20
2023-01-29T09:22:41.682Z,10.23
2023-01-29T09:25:08.656Z,8.30
2023-01-29T09:27:35.732Z,6.83
2023-01-29T09:30:02.831Z,8.03
2023-01-29T09:33:00.849Z,7.07
2023-01-29T09:35:18.506Z,7.27
2023-01-29T09:37:49.314Z,8.17
2023-01-29T09:40:26.565Z,7.23
2023-01-29T09:42:59.304Z,7.97
2023-01-29T09:45:27.734Z,7.70
2023-01-29T09:47:57.592Z,7.17
2023-01-29T09:50:28.883Z,7.40
2023-01-29T09:53:16.377Z,6.87
2023-01-29T09:55:46.782Z,6.77
2023-01-29T09:58:29.420Z,6.73
2023-01-29T10:01:05.236Z,6.00
2023-01-29T10:03:51.072Z,7.13
2023-01-29T10:06:30.676Z,6.10
2023-01-29T10:09:00.669Z,6.73
2023-01-29T10:11:40.040Z,6.80
2023-01-29T10:14:20.240Z,6.90
2023-01-29T10:16:47.447Z,5.80
2023-01-29T10:19:17.194Z,6.80
2023-01-29T10:21:44.310Z,6.77
2023-01-29T10:24:17.722Z,5.03
2023-01-29T10:26:45.056Z,6.00
2023-01-29T10:29:16.301Z,5.67
2023-01-29T10:31:44.338Z,6.27
2023-01-29T10:34:24.155Z,6.00
2023-01-29T10:36:51.247Z,5.70
2023-01-29T10:39:22.245Z,5.00
2023-01-29T10:42:08.098Z,5.50
2023-01-29T10:44:41.321Z,4.75
2023-01-29T10:47:09.165Z,5.65
2023-01-29T10:49:50.898Z,4.80
2023-01-29T10:52:30.642Z,4.47
2023-01-29T10:55:18.496Z,5.38
2023-01-29T10:58:03.140Z,5.03
2023-01-29T11:00:38.268Z,5.50
2023-01-29T11:03:27.602Z,5.22
2023-01-29T11:06:15.963Z,5.60
2023-01-29T11:08:46.631Z,5.77
2023-01-29T11:11:15.315Z,5.93
2023-01-29T11:13:49.407Z,4.63
2023-01-29T11:16:16.776Z,5.83
2023-01-29T11:18:50.067Z,6.03
2023-01-29T11:21:17.156Z,4.93
2023-01-29T11:23:43.858Z,6.03
2023-01-29T11:26:17.734Z,5.83
2023-01-29T11:28:48.762Z,6.07
2023-01-29T11:31:16.806Z,7.10
2023-01-29T11:33:44.410Z,6.73
2023-01-29T11:36:33.276Z,6.30
2023-01-29T11:39:20.358Z,7.03
2023-01-29T11:41:50.338Z,6.70
2023-01-29T11:44:20.494Z,5.60
2023-01-29T11:46:48.246Z,6.40
2023-01-29T11:49:41.241Z,6.07
2023-01-29T11:52:09.564Z,6.00
2023-01-29T11:54:38.994Z,6.80
2023-01-29T11:57:05.961Z,6.40
2023-01-29T11:59:35.223Z,6.17
2023-01-29T12:02:23.612Z,6.83
2023-01-29T12:04:50.988Z,6.13
2023-01-29T12:07:19.184Z,6.63
2023-01-29T12:09:54.128Z,6.27
2023-01-29T12:12:39.584Z,6.30
2023-01-29T12:15:06.719Z,6.60
2023-01-29T12:17:36.478Z,6.03
2023-01-29T12:20:07.265Z,6.73
2023-01-29T12:22:43.404Z,6.53
2023-01-29T12:25:19.414Z,6.70
2023-01-29T12:28:01.463Z,6.60
2023-01-29T12:30:31.389Z,6.57
2023-01-29T12:33:02.951Z,6.23
2023-01-29T12:35:35.718Z,5.30
2023-01-29T12:38:19.263Z,7.32
2023-01-29T12:40:56.978Z,5.97
2023-01-29T12:43:42.558Z,6.40
2023-01-29T12:46:22.286Z,5.90
2023-01-29T12:48:49.960Z,6.47
2023-01-29T12:51:21.952Z,7.33
2023-01-29T12:53:54.991Z,7.43
2023-01-29T12:56:40.094Z,7.72
2023-01-29T12:59:23.647Z,6.77
2023-01-29T13:01:55.424Z,7.55
2023-01-29T13:04:22.250Z,7.50
2023-01-29T13:06:53.036Z,7.40
2023-01-29T13:09:26.798Z,7.03
2023-01-29T13:14:26.301Z,6.67
2023-01-29T13:16:56.031Z,6.85
2023-01-29T13:19:32.000Z,7.57
2023-01-29T13:22:01.143Z,6.10
2023-01-29T13:24:31.869Z,6.50
2023-01-29T13:26:59.098Z,7.60
2023-01-29T13:29:28.250Z,7.27
2023-01-29T13:32:00.430Z,7.33
2023-01-29T13:34:29.856Z,7.10
2023-01-29T13:36:58.407Z,5.93
2023-01-29T13:39:28.026Z,7.27
2023-01-29T13:41:55.792Z,6.47
2023-01-29T13:44:25.609Z,7.33
2023-01-29T13:46:59.662Z,6.67
2023-01-29T13:49:31.407Z,7.07
2023-01-29T13:52:00.145Z,6.90
2023-01-29T13:54:27.766Z,7.33
2023-01-29T13:56:59.601Z,7.83
2023-01-29T13:59:44.870Z,7.53
2023-01-29T14:02:20.806Z,6.30
2023-01-29T14:04:47.914Z,7.10
2023-01-29T14:07:37.845Z,6.33
2023-01-29T14:10:14.420Z,6.97
2023-01-29T14:12:44.940Z,6.93
2023-01-29T14:15:21.759Z,7.17
2023-01-29T14:18:15.220Z,5.97
2023-01-29T14:20:48.399Z,6.33
2023-01-29T14:23:24.309Z,6.50
2023-01-29T14:25:51.426Z,7.13
2023-01-29T14:28:23.309Z,8.10
2023-01-29T14:30:51.041Z,7.97
2023-01-29T14:33:27.425Z,8.37
2023-01-29T14:35:56.854Z,9.67
2023-01-29T14:38:27.017Z,9.63
2023-01-29T14:41:02.871Z,10.93
2023-01-29T14:43:30.040Z,10.30
2023-01-29T14:46:16.925Z,10.73
2023-01-29T14:48:49.108Z,10.20
2023-01-29T14:51:17.476Z,12.30
2023-01-29T14:53:53.979Z,11.40
2023-01-29T14:56:37.123Z,13.37
2023-01-29T14:59:15.976Z,45.00
2023-01-29T15:01:48.818Z,15.03
2023-01-29T15:04:19.554Z,11.15
2023-01-29T15:06:55.373Z,9.37
2023-01-29T15:09:41.908Z,11.50
2023-01-29T15:12:27.897Z,9.97
2023-01-29T15:14:54.894Z,25.10
2023-01-29T15:17:30.887Z,10.10
2023-01-29T15:19:58.576Z,10.10
2023-01-29T15:22:30.768Z,10.60
2023-01-29T15:25:19.635Z,12.10
2023-01-29T15:27:46.883Z,15.13
2023-01-29T15:30:17.491Z,11.23
2023-01-29T15:32:45.075Z,11.40
2023-01-29T15:35:19.204Z,11.40
2023-01-29T15:37:59.265Z,11.07
2023-01-29T15:40:27.328Z,10.60
2023-01-29T15:42:54.405Z,11.13
2023-01-29T15:45:31.541Z,9.90
2023-01-29T15:48:00.738Z,15.57
2023-01-29T15:50:28.586Z,13.97
2023-01-29T15:53:05.398Z,11.33
2023-01-29T15:55:33.134Z,9.40
2023-01-29T15:58:00.787Z,10.70
2023-01-29T16:00:29.051Z,11.27
2023-01-29T16:02:57.057Z,10.97
2023-01-29T16:05:31.209Z,10.33
2023-01-29T16:07:58.416Z,10.33
2023-01-29T16:10:27.838Z,10.87
2023-01-29T16:12:55.247Z,10.33
2023-01-29T16:15:27.418Z,11.20
2023-01-29T16:17:54.916Z,11.07
2023-01-29T16:20:32.978Z,12.17
2023-01-29T16:23:00.323Z,10.80
2023-01-29T16:25:28.171Z,12.10
2023-01-29T16:27:55.171Z,10.37
2023-01-29T16:30:24.944Z,15.00
2023-01-29T16:32:52.157Z,10.40
2023-01-29T16:35:19.663Z,10.17
2023-01-29T16:37:50.249Z,9.30
2023-01-29T16:40:26.595Z,9.80
2023-01-29T16:43:17.107Z,13.33
2023-01-29T16:46:01.436Z,10.63
2023-01-29T16:48:32.702Z,11.10
2023-01-29T16:51:22.340Z,11.43
2023-01-29T16:53:59.045Z,12.73
2023-01-29T16:56:26.825Z,12.20
2023-01-29T16:58:54.571Z,12.23
2023-01-29T17:01:22.910Z,10.90
2023-01-29T17:04:10.592Z,11.40
2023-01-29T17:06:38.473Z,10.57
2023-01-29T17:09:05.831Z,9.70
2023-01-29T17:11:34.951Z,10.67
2023-01-29T17:14:01.619Z,10.53
2023-01-29T17:16:32.663Z,31.10
2023-01-29T17:18:59.940Z,13.57
2023-01-29T17:21:26.670Z,11.80
2023-01-29T17:23:53.612Z,12.63
2023-01-29T17:26:21.038Z,11.10
2023-01-29T17:28:51.921Z,10.37
2023-01-29T17:31:19.337Z,10.67
2023-01-29T17:33:46.520Z,11.67
2023-01-29T17:36:14.808Z,12.27
2023-01-29T17:38:42.136Z,10.27
2023-01-29T17:41:15.212Z,12.20
2023-01-29T17:43:44.611Z,11.82
2023-01-29T17:46:15.817Z,13.03
2023-01-29T17:48:43.178Z,11.47
2023-01-29T17:51:12.250Z,12.60
2023-01-29T17:53:47.534Z,12.47
2023-01-29T17:56:32.567Z,13.50
2023-01-29T17:59:00.432Z,12.23
2023-01-29T18:01:27.790Z,12.40
2023-01-29T18:03:55.311Z,12.87
2023-01-29T18:06:29.819Z,14.80
2023-01-29T18:08:57.372Z,16.47
2023-01-29T18:11:25.203Z,14.40
2023-01-29T18:13:52.647Z,14.83
2023-01-29T18:16:22.417Z,13.57
2023-01-29T18:18:50.118Z,14.47
2023-01-29T18:21:17.259Z,19.10
2023-01-29T18:23:44.945Z,14.50
2023-01-29T18:26:12.613Z,14.77
2023-01-29T18:28:40.072Z,14.83
2023-01-29T18:31:07.745Z,15.77
2023-01-29T18:33:36.220Z,16.30
2023-01-29T18:36:05.702Z,22.57
2023-01-29T18:38:36.118Z,16.70
2023-01-29T18:41:07.196Z,16.70
2023-01-29T18:43:34.540Z,15.33
2023-01-29T18:46:03.053Z,13.63
2023-01-29T18:48:31.610Z,14.67
2023-01-29T18:50:59.000Z,22.97
2023-01-29T18:53:25.747Z,15.80
2023-01-29T18:55:59.605Z,14.30
2023-01-29T18:58:35.844Z,14.43
2023-01-29T19:01:07.406Z,14.63
2023-01-29T19:03:34.349Z,13.20
2023-01-29T19:06:02.012Z,12.57
2023-01-29T19:08:29.876Z,13.83
2023-01-29T19:10:56.904Z,12.60
2023-01-29T19:13:23.839Z,13.33
2023-01-29T19:15:51.185Z,14.07
2023-01-29T19:18:18.372Z,16.93
2023-01-29T19:20:45.701Z,14.00
2023-01-29T19:23:12.551Z,14.90
2023-01-29T19:25:40.150Z,12.53
2023-01-29T19:28:07.676Z,13.53
2023-01-29T19:30:34.784Z,13.93
2023-01-29T19:33:02.012Z,15.00
2023-01-29T19:35:29.592Z,13.40
2023-01-29T19:37:56.885Z,13.07
2023-01-29T19:40:25.003Z,15.10
2023-01-29T19:42:56.646Z,15.53
2023-01-29T19:45:49.071Z,14.53
2023-01-29T19:48:14.949Z,14.47
2023-01-29T19:50:42.004Z,13.67
2023-01-29T19:53:08.950Z,16.13
2023-01-29T19:55:35.928Z,14.73
2023-01-29T19:58:04.278Z,13.67
2023-01-29T20:00:31.627Z,13.60
2023-01-29T20:02:59.220Z,16.10
2023-01-29T20:05:27.860Z,14.53
2023-01-29T20:07:55.041Z,18.33
2023-01-29T20:10:22.226Z,17.43
2023-01-29T20:12:49.422Z,17.70
2023-01-29T20:15:17.378Z,17.50
2023-01-29T20:17:46.484Z,15.57
2023-01-29T20:20:14.897Z,15.53
2023-01-29T20:22:42.682Z,15.40
2023-01-29T20:25:10.243Z,16.53
2023-01-29T20:27:37.417Z,16.13
2023-01-29T20:30:05.072Z,15.20
2023-01-29T20:32:33.802Z,17.60
2023-01-29T20:35:01.142Z,15.30
2023-01-29T20:37:28.387Z,15.67
2023-01-29T20:39:55.489Z,15.77
2023-01-29T20:42:22.921Z,15.53
2023-01-29T20:44:49.964Z,16.60
2023-01-29T20:47:17.594Z,14.93
2023-01-29T20:49:44.216Z,14.90
2023-01-29T20:52:11.985Z,16.80
2023-01-29T20:54:39.050Z,16.77
2023-01-29T20:57:06.437Z,15.53
2023-01-29T20:59:33.646Z,17.10
2023-01-29T21:02:01.002Z,16.50
2023-01-29T21:04:28.599Z,17.27
2023-01-29T21:06:55.937Z,18.23
2023-01-29T21:09:23.061Z,19.07
2023-01-29T21:11:50.313Z,18.73
2023-01-29T21:14:17.499Z,19.77
2023-01-29T21:16:44.637Z,22.20
2023-01-29T21:19:14.512Z,105.60
2023-01-29T21:21:41.481Z,34.03
2023-01-29T21:24:09.988Z,17.37
2023-01-29T21:26:40.308Z,18.63
2023-01-29T21:29:07.282Z,21.73
2023-01-29T21:31:34.393Z,19.93
2023-01-29T21:34:02.112Z,17.57
2023-01-29T21:36:29.519Z,14.50
2023-01-29T21:38:56.661Z,14.03
2023-01-29T21:41:43.786Z,14.63
2023-01-29T21:44:11.179Z,14.87
2023-01-29T21:46:38.438Z,18.87
2023-01-29T21:49:14.147Z,16.63
2023-01-29T21:51:41.644Z,19.70
2023-01-29T21:54:08.067Z,16.90
2023-01-29T21:56:34.521Z,14.43
2023-01-29T21:59:02.399Z,15.77
2023-01-29T22:01:38.043Z,15.80
2023-01-29T22:04:06.027Z,14.33
2023-01-29T22:06:32.679Z,14.30
2023-01-29T22:08:59.125Z,13.90
2023-01-29T22:11:25.840Z,13.90
2023-01-29T22:13:52.287Z,15.03
2023-01-29T22:16:18.718Z,17.17
2023-01-29T22:18:45.197Z,13.87
2023-01-29T22:21:11.696Z,13.90
2023-01-29T22:23:38.340Z,18.60
2023-01-29T22:26:05.434Z,15.23
2023-01-29T22:28:31.946Z,15.77
2023-01-29T22:31:02.723Z,15.53
2023-01-29T22:33:29.724Z,17.97
2023-01-29T22:35:57.305Z,14.87
2023-01-29T22:38:24.597Z,14.90
2023-01-29T22:40:55.180Z,14.13
2023-01-29T22:43:22.868Z,16.47
2023-01-29T22:45:50.335Z,15.23
2023-01-29T22:48:17.787Z,14.27
2023-01-29T22:51:04.371Z,14.77
2023-01-29T22:53:30.813Z,15.17
2023-01-29T22:55:57.248Z,16.93
2023-01-29T22:58:23.653Z,16.67
2023-01-29T23:00:51.075Z,15.00
2023-01-29T23:03:17.563Z,16.37
2023-01-29T23:05:43.966Z,17.47
2023-01-29T23:08:10.462Z,16.83
2023-01-29T23:10:37.283Z,17.17
2023-01-29T23:13:03.810Z,17.60
2023-01-29T23:15:30.297Z,16.17
2023-01-29T23:17:56.823Z,17.73
2023-01-29T23:20:23.276Z,16.37
2023-01-29T23:22:50.060Z,16.53
2023-01-29T23:25:16.725Z,16.77
2023-01-29T23:27:43.172Z,15.97
2023-01-29T23:30:09.900Z,18.07
2023-01-29T23:32:36.555Z,17.33
2023-01-29T23:35:03.141Z,18.73
2023-01-29T23:37:29.610Z,15.60
2023-01-29T23:39:56.090Z,16.30
2023-01-29T23:42:22.590Z,17.13
2023-01-29T23:44:49.089Z,17.33
2023-01-29T23:47:16.648Z,15.80
2023-01-29T23:49:43.041Z,17.70
2023-01-29T23:52:10.009Z,17.67
2023-01-29T23:54:36.929Z,16.47
2023-01-29T23:57:03.853Z,17.33
2023-01-29T23:59:30.453Z,18.73
